»·PEaware :: N1759T KSAN-KCNO

N1759T :: KSAN-KCNO

FLIGHT INFORMATION

Flight Status: Arrived
Operator: Privately registered:
United States
More flights under this callsign
Pilot: Lev B. (11997)
Aircraft: CESSNA 310
(C310)
More flights by this aircraft type
Origin: KSAN San Diego Intl-Lindbergh
United States
Destination: KCNO Chino
United States
More flights between these airports :: More routes between these airports
Route: +OCN V23 DANAH V363 POXKU V8 PDZ
File this flight plan on PilotEdge
Remarks:
Altitude:
(Current/Filed)
6,000ft
Speed:
(Current/Filed)
179kts
Departed: 05-Oct-18 06:28 PM
Arrived: 05-Oct-18 07:16 PM
Distance/Time
Traveled:
78nm/0:48
Distance/Time
To Go:
Arrived

Flight Plot

Page will automatically refresh every two minutes.


Map Options




Map Legend


Flown Route
Filed Route
Departure Airport
Arrival Airport
Navaid (VOR, NDB)
Fix

Horizontal Profiles

Position Reports

Time Latitude Longitude Heading Altitude Ground
Speed
05-Oct-18 18:08 32.735053 -117.183640 325 16ft 0kts
05-Oct-18 18:09 32.735053 -117.183640 325 16ft 0kts
05-Oct-18 18:10 32.735053 -117.183640 325 16ft 0kts
05-Oct-18 18:11 32.735053 -117.183640 325 16ft 0kts
05-Oct-18 18:12 32.735053 -117.183640 325 16ft 0kts
05-Oct-18 18:13 32.735053 -117.183640 325 16ft 0kts
05-Oct-18 18:14 32.735053 -117.183640 325 16ft 0kts
05-Oct-18 18:15 32.735053 -117.183640 325 16ft 0kts
05-Oct-18 18:16 32.735053 -117.183640 325 16ft 0kts
05-Oct-18 18:17 32.735053 -117.183640 325 16ft 0kts
05-Oct-18 18:18 32.735053 -117.183640 325 16ft 0kts
05-Oct-18 18:19 32.735053 -117.183640 325 16ft 0kts
05-Oct-18 18:20 32.735053 -117.183640 325 16ft 0kts
05-Oct-18 18:21 32.735053 -117.183640 325 16ft 0kts
05-Oct-18 18:22 32.735053 -117.183640 325 16ft 0kts
05-Oct-18 18:23 32.735053 -117.183640 325 16ft 0kts
05-Oct-18 18:24 32.735157 -117.184284 171 16ft 7kts
05-Oct-18 18:25 32.732998 -117.182506 105 15ft 10kts
05-Oct-18 18:26 32.732214 -117.179348 105 19ft 9kts
05-Oct-18 18:27 32.731227 -117.176079 105 20ft 11kts
05-Oct-18 18:28 32.730977 -117.175492 135 21ft 0kts
05-Oct-18 18:29 32.730453 -117.175234 184 20ft 13kts
05-Oct-18 18:30 32.736005 -117.194345 303 907ft 98kts
05-Oct-18 18:31 32.771198 -117.223447 326 1127ft 170kts
05-Oct-18 18:32 32.811526 -117.253410 326 1781ft 171kts
05-Oct-18 18:33 32.843956 -117.277441 326 2278ft 171kts
05-Oct-18 18:34 32.883628 -117.306680 326 3118ft 162kts
05-Oct-18 18:35 32.921335 -117.334278 326 4093ft 157kts
05-Oct-18 18:36 32.961347 -117.351829 350 5066ft 156kts
05-Oct-18 18:37 33.004567 -117.358587 349 5764ft 163kts
05-Oct-18 18:38 33.047875 -117.365704 349 6090ft 153kts
05-Oct-18 18:39 33.092083 -117.373223 348 5998ft 161kts
05-Oct-18 18:40 33.134635 -117.382273 347 6023ft 157kts
05-Oct-18 18:41 33.177485 -117.391718 343 6049ft 157kts
05-Oct-18 18:42 33.219655 -117.404926 340 6047ft 159kts
05-Oct-18 18:43 33.261345 -117.422462 313 5914ft 159kts
05-Oct-18 18:44 33.287032 -117.465246 304 5832ft 158kts
05-Oct-18 18:45 33.309076 -117.500031 306 5847ft 155kts
05-Oct-18 18:46 33.335427 -117.539871 306 5958ft 151kts
05-Oct-18 18:47 33.365358 -117.585303 306 6140ft 148kts
05-Oct-18 18:48 33.387897 -117.616818 312 6177ft 152kts
05-Oct-18 18:49 33.417805 -117.651577 332 6027ft 161kts
05-Oct-18 18:50 33.464915 -117.680107 329 5837ft 164kts
05-Oct-18 18:51 33.497950 -117.701483 340 5787ft 162kts
05-Oct-18 18:52 33.541676 -117.709974 349 5907ft 155kts
05-Oct-18 18:53 33.583948 -117.716970 349 6089ft 152kts
05-Oct-18 18:54 33.626174 -117.724009 349 6148ft 156kts
05-Oct-18 18:55 33.670148 -117.731692 349 6036ft 161kts
05-Oct-18 18:56 33.711518 -117.750210 330 5933ft 159kts
05-Oct-18 18:57 33.750709 -117.775534 330 5822ft 161kts
05-Oct-18 18:58 33.791330 -117.792247 359 5897ft 157kts
05-Oct-18 18:59 33.834781 -117.789810 0 5974ft 156kts
05-Oct-18 19:00 33.868087 -117.766825 75 6010ft 164kts
05-Oct-18 19:01 33.877474 -117.712948 76 6041ft 164kts
05-Oct-18 19:02 33.886782 -117.659560 73 6070ft 162kts
05-Oct-18 19:03 33.898879 -117.607429 72 6042ft 162kts
05-Oct-18 19:04 33.911241 -117.554737 72 5920ft 165kts
05-Oct-18 19:05 33.920221 -117.500237 84 5722ft 173kts
05-Oct-18 19:06 33.923192 -117.441656 84 5104ft 175kts
05-Oct-18 19:07 33.926403 -117.382875 84 4486ft 177kts
05-Oct-18 19:08 33.931286 -117.324430 62 4036ft 169kts
05-Oct-18 19:09 33.970321 -117.317159 345 3909ft 147kts
05-Oct-18 19:10 33.979752 -117.350131 248 3898ft 112kts
05-Oct-18 19:11 33.967853 -117.386242 259 3373ft 122kts
05-Oct-18 19:12 33.966993 -117.427526 268 2929ft 122kts
05-Oct-18 19:13 33.976337 -117.466535 286 2971ft 131kts
05-Oct-18 19:14 33.970427 -117.509769 266 3009ft 134kts
05-Oct-18 19:15 33.971719 -117.555336 281 2597ft 137kts
05-Oct-18 19:16 33.975677 -117.595166 275 1159ft 97kts
05-Oct-18 19:17 33.975815 -117.628812 274 680ft 89kts
05-Oct-18 19:18 33.976580 -117.636764 36 630ft 0kts
05-Oct-18 19:19 33.977406 -117.636884 357 632ft 0kts
05-Oct-18 19:20 33.977406 -117.636884 357 632ft 0kts
05-Oct-18 19:21 33.977406 -117.636884 357 632ft 0kts
05-Oct-18 19:22 33.977406 -117.636884 357 632ft 0kts
05-Oct-18 19:23 33.977406 -117.636884 357 632ft 0kts
05-Oct-18 19:24 33.977406 -117.636884 357 632ft 0kts
05-Oct-18 19:25 33.977406 -117.636884 357 632ft 0kts
05-Oct-18 19:26 33.977406 -117.636884 357 632ft 0kts
05-Oct-18 19:27 33.977406 -117.636884 357 632ft 0kts
05-Oct-18 19:28 33.977406 -117.636884 357 632ft 0kts
05-Oct-18 19:29 33.977406 -117.636884 357 632ft 0kts
05-Oct-18 19:30 33.977406 -117.636884 357 632ft 0kts
05-Oct-18 19:31 33.977406 -117.636884 357 632ft 0kts
05-Oct-18 19:32 33.977406 -117.636884 357 632ft 0kts

Navigation Log

Ident Type
Flight plan parsing failed, navigation log unavailable